Time;durP1;ratioP1;P1;durP2;ratioP2;P2;SDS_P1;SDS_P2;PMS_P1;PMS_P2;Temp;Humidity;BMP_temperature;BMP_pressure;BME280_temperature;BME280_humidity;BME280_pressure;Samples;Min_cycle;Max_cycle;Signal;HPM_P1;HPM_P2
2021/11/18 00:02:02;;;;;;;16.15;9.23;;;;;;;5.10;83.42;97308.25;5089167;28;20056;-74
2021/11/18 00:04:30;;;;;;;16.88;10.25;;;;;;;5.08;83.82;97310.41;5090743;28;20610;-74
2021/11/18 00:06:57;;;;;;;15.32;9.30;;;;;;;5.07;83.81;97308.78;5089527;28;20525;-74
2021/11/18 00:09:24;;;;;;;14.98;9.45;;;;;;;5.06;83.62;97299.03;5090473;28;20069;-74
2021/11/18 00:11:55;;;;;;;15.98;9.52;;;;;;;5.07;83.62;97297.97;5089304;28;20044;-74
2021/11/18 00:14:22;;;;;;;16.23;10.32;;;;;;;5.04;83.76;97303.88;5090061;28;20104;-74
2021/11/18 00:16:48;;;;;;;17.98;10.20;;;;;;;5.02;83.59;97311.44;5090066;28;20499;-73
2021/11/18 00:19:15;;;;;;;15.43;9.48;;;;;;;5.03;83.92;97313.88;5089467;28;20457;-74
2021/11/18 00:21:44;;;;;;;14.82;8.93;;;;;;;5.06;84.01;97310.63;5089949;28;20506;-73
2021/11/18 00:24:13;;;;;;;17.05;9.98;;;;;;;5.06;83.93;97307.13;5088814;28;20056;-74
2021/11/18 00:26:40;;;;;;;15.13;8.70;;;;;;;5.07;84.01;97316.88;5090612;28;20044;-74
2021/11/18 00:29:08;;;;;;;17.95;9.15;;;;;;;5.09;83.53;97312.03;5088938;28;20059;-73
2021/11/18 00:31:37;;;;;;;15.90;9.88;;;;;;;5.14;83.34;97317.47;5090130;28;20066;-74
2021/11/18 00:34:06;;;;;;;15.25;9.73;;;;;;;5.15;83.57;97306.38;5089414;28;20415;-74
2021/11/18 00:36:33;;;;;;;16.40;10.13;;;;;;;5.14;83.16;97309.34;5089800;28;20037;-74
2021/11/18 00:39:00;;;;;;;17.05;10.50;;;;;;;5.13;83.30;97313.13;5089652;28;20048;-74
2021/11/18 00:41:27;;;;;;;16.63;9.55;;;;;;;5.16;83.04;97313.41;5098496;28;20093;-73
2021/11/18 00:43:53;;;;;;;19.55;9.50;;;;;;;5.19;83.17;97325.59;5110705;28;20054;-74
2021/11/18 00:46:22;;;;;;;18.17;10.13;;;;;;;5.20;82.90;97319.91;5108883;27;20052;-74
2021/11/18 00:48:48;;;;;;;15.85;9.73;;;;;;;5.16;83.15;97318.81;5110661;28;20071;-74
2021/11/18 00:51:17;;;;;;;19.42;10.48;;;;;;;5.20;83.41;97313.72;5108778;28;20073;-74
2021/11/18 00:53:45;;;;;;;15.40;9.43;;;;;;;5.23;83.14;97324.81;5110608;27;20044;-73
2021/11/18 00:56:13;;;;;;;15.10;9.68;;;;;;;5.26;82.58;97330.75;5108977;28;20040;-73
2021/11/18 00:58:40;;;;;;;17.63;9.75;;;;;;;5.25;82.77;97329.94;5099551;27;20549;-73
2021/11/18 01:01:07;;;;;;;15.18;9.57;;;;;;;5.26;82.62;97328.06;5068343;28;20044;-72
2021/11/18 01:03:35;;;;;;;14.88;8.70;;;;;;;5.24;82.83;97331.84;5068753;28;20746;-74
2021/11/18 01:06:01;;;;;;;16.33;10.07;;;;;;;5.28;82.48;97339.44;5082507;28;20503;-74
2021/11/18 01:08:28;;;;;;;15.65;9.60;;;;;;;5.30;82.79;97335.38;5088710;28;20044;-74
2021/11/18 01:10:57;;;;;;;14.32;9.35;;;;;;;5.28;82.39;97326.75;5089304;28;20463;-74
2021/11/18 01:13:25;;;;;;;14.80;9.65;;;;;;;5.26;82.18;97320.78;5088014;28;20044;-74
2021/11/18 01:15:53;;;;;;;16.75;9.70;;;;;;;5.24;82.14;97318.34;5089459;28;20055;-74
2021/11/18 01:18:20;;;;;;;14.32;8.85;;;;;;;5.25;82.29;97321.84;5088000;28;20047;-74
2021/11/18 01:20:49;;;;;;;15.85;9.40;;;;;;;5.27;82.52;97322.38;5088965;28;20051;-74
2021/11/18 01:23:18;;;;;;;15.50;9.45;;;;;;;5.32;82.45;97327.81;5088564;28;20044;-73
2021/11/18 01:25:45;;;;;;;17.42;9.80;;;;;;;5.30;81.88;97329.19;5088943;28;20051;-73
2021/11/18 01:28:12;;;;;;;18.00;9.55;;;;;;;5.29;82.30;97325.66;5088700;28;20052;-73
2021/11/18 01:30:41;;;;;;;17.88;9.52;;;;;;;5.26;81.83;97328.88;5087908;28;20071;-73
2021/11/18 01:33:09;;;;;;;16.70;9.63;;;;;;;5.23;82.32;97324.00;5088898;28;20059;-73
2021/11/18 01:35:36;;;;;;;19.48;9.85;;;;;;;5.21;82.58;97326.94;5088219;28;20040;-73
2021/11/18 01:38:04;;;;;;;18.58;9.50;;;;;;;5.20;83.15;97336.13;5088961;28;20048;-72
2021/11/18 01:40:33;;;;;;;16.98;9.50;;;;;;;5.22;82.75;97328.59;5087668;28;20044;-74
2021/11/18 01:43:01;;;;;;;16.88;9.82;;;;;;;5.18;82.61;97335.59;5089041;28;20058;-73
2021/11/18 01:45:30;;;;;;;18.40;9.57;;;;;;;5.11;82.97;97336.84;5088821;28;20056;-73
2021/11/18 01:47:57;;;;;;;19.77;10.60;;;;;;;5.10;83.56;97340.63;5088492;28;20043;-74
2021/11/18 01:50:26;;;;;;;15.93;9.70;;;;;;;5.08;83.24;97337.41;5087813;28;20052;-74
2021/11/18 01:52:54;;;;;;;17.40;9.88;;;;;;;5.04;83.87;97337.09;5087740;28;20048;-74
2021/11/18 01:55:25;;;;;;;21.58;10.27;;;;;;;5.04;83.90;97336.28;5088321;28;20048;-74
2021/11/18 01:57:52;;;;;;;17.58;9.68;;;;;;;5.03;84.00;97345.47;5087694;28;20044;-73
2021/11/18 02:00:23;;;;;;;16.73;9.65;;;;;;;5.02;84.08;97338.44;5088429;28;20048;-74
2021/11/18 02:02:50;;;;;;;22.83;9.68;;;;;;;5.01;84.17;97347.56;5087316;28;20047;-74
2021/11/18 02:05:20;;;;;;;20.52;9.73;;;;;;;5.01;83.75;97344.88;5087804;28;20048;-73
2021/11/18 02:07:48;;;;;;;15.07;9.13;;;;;;;4.99;84.16;97334.34;5087856;28;20044;-74
2021/11/18 02:10:18;;;;;;;17.20;10.05;;;;;;;4.95;83.86;97341.31;5087369;28;20059;-74
2021/11/18 02:12:46;;;;;;;18.67;10.32;;;;;;;4.95;84.02;97344.03;5087669;28;20040;-73
2021/11/18 02:15:21;;;;;;;17.00;9.77;;;;;;;4.99;84.31;97345.16;5086888;28;20048;-74
2021/11/18 02:17:47;;;;;;;18.65;10.25;;;;;;;5.03;83.63;97338.16;5088539;28;20052;-74
2021/11/18 02:20:21;;;;;;;18.30;10.30;;;;;;;5.02;83.94;97343.84;5087201;28;20075;-74
2021/11/18 02:22:48;;;;;;;18.88;9.82;;;;;;;4.98;84.00;97338.94;5087773;28;20051;-73
2021/11/18 02:25:14;;;;;;;18.20;9.52;;;;;;;4.96;84.72;97335.69;5087229;28;20054;-74
2021/11/18 02:27:41;;;;;;;17.27;10.32;;;;;;;4.92;84.88;97331.88;5087634;28;20048;-74
2021/11/18 02:30:10;;;;;;;14.05;9.40;;;;;;;4.91;85.44;97324.84;5087035;28;20055;-74
2021/11/18 02:32:40;;;;;;;21.33;10.02;;;;;;;4.88;85.28;97333.44;5087521;28;20055;-74
2021/11/18 02:35:11;;;;;;;19.23;10.02;;;;;;;4.88;85.62;97332.66;5087426;28;20105;-74
2021/11/18 02:37:39;;;;;;;17.35;9.68;;;;;;;4.85;85.39;97333.97;5087032;28;20043;-74
2021/11/18 02:40:09;;;;;;;18.13;10.27;;;;;;;4.84;85.16;97345.81;5087323;28;20044;-74
2021/11/18 02:42:35;;;;;;;19.13;10.82;;;;;;;4.86;85.25;97335.59;5086752;28;20466;-74
2021/11/18 02:45:02;;;;;;;19.20;10.75;;;;;;;4.92;85.78;97334.56;5087698;28;20052;-73
2021/11/18 02:47:28;;;;;;;17.85;9.80;;;;;;;4.90;84.93;97331.31;5087080;28;20058;-74
2021/11/18 02:49:56;;;;;;;18.58;9.98;;;;;;;4.89;85.02;97329.69;5087354;28;20043;-74
2021/11/18 02:52:28;;;;;;;18.35;10.15;;;;;;;4.86;84.75;97332.91;5086650;28;20071;-74
2021/11/18 02:54:56;;;;;;;18.50;10.20;;;;;;;4.92;85.42;97334.56;5087094;28;20058;-74
2021/11/18 02:57:23;;;;;;;19.55;10.48;;;;;;;4.92;84.79;97331.88;5087284;28;20048;-74
2021/11/18 02:59:49;;;;;;;17.17;10.57;;;;;;;4.92;84.46;97339.97;5086587;28;20048;-75
2021/11/18 03:02:17;;;;;;;19.55;10.40;;;;;;;4.92;84.64;97339.97;5087085;28;20055;-75
2021/11/18 03:04:43;;;;;;;17.25;9.95;;;;;;;4.95;84.82;97342.13;5086586;28;20048;-74
2021/11/18 03:07:10;;;;;;;16.88;9.68;;;;;;;4.95;84.71;97350.25;5087199;28;20051;-74
2021/11/18 03:09:38;;;;;;;18.25;9.90;;;;;;;4.96;84.68;97346.50;5086802;28;20059;-74
2021/11/18 03:12:07;;;;;;;16.40;9.95;;;;;;;4.97;84.60;97342.72;5086294;28;20055;-74
2021/11/18 03:14:34;;;;;;;18.15;9.65;;;;;;;4.98;84.54;97344.34;5087436;28;20051;-76
2021/11/18 03:17:00;;;;;;;15.93;9.48;;;;;;;5.02;85.15;97360.03;5087096;28;20051;-74
2021/11/18 03:19:27;;;;;;;17.45;9.73;;;;;;;5.05;84.40;97360.31;5087174;28;20056;-74
2021/11/18 03:21:54;;;;;;;18.63;10.57;;;;;;;5.02;84.16;97360.84;5086608;28;20058;-74
2021/11/18 03:24:21;;;;;;;18.77;9.40;;;;;;;5.02;84.28;97360.03;5087130;28;20052;-74
2021/11/18 03:26:48;;;;;;;17.98;10.02;;;;;;;5.03;84.68;97362.47;5086798;28;20055;-74
2021/11/18 03:29:16;;;;;;;19.38;10.48;;;;;;;5.05;84.95;97359.50;5087101;28;20533;-74
2021/11/18 03:31:43;;;;;;;17.60;9.27;;;;;;;5.07;84.26;97368.97;5086809;28;20410;-74
2021/11/18 03:34:12;;;;;;;18.17;9.65;;;;;;;5.01;83.52;97364.59;5090607;28;20048;-74
2021/11/18 03:36:39;;;;;;;15.98;9.43;;;;;;;5.00;83.84;97365.66;5090803;28;20126;-74
2021/11/18 03:39:08;;;;;;;17.40;8.98;;;;;;;4.99;83.98;97355.94;5090190;28;20706;-73
2021/11/18 03:41:37;;;;;;;18.52;9.70;;;;;;;4.98;84.12;97365.13;5088086;28;20044;-74
2021/11/18 03:44:07;;;;;;;17.65;8.95;;;;;;;4.99;83.78;97366.75;5090816;28;20044;-74
2021/11/18 03:46:41;;;;;;;16.42;9.15;;;;;;;4.95;83.69;97377.22;5091099;28;20055;-74
2021/11/18 03:49:10;;;;;;;17.88;9.65;;;;;;;4.96;84.06;97373.47;5089435;28;20036;-74
2021/11/18 03:51:37;;;;;;;17.13;9.43;;;;;;;4.96;84.49;97378.88;5090109;28;20052;-74
2021/11/18 03:54:08;;;;;;;16.83;9.32;;;;;;;4.97;84.35;97375.09;5089370;28;20040;-74
2021/11/18 03:56:39;;;;;;;17.52;10.13;;;;;;;5.01;83.93;97377.28;5090400;28;20044;-73
2021/11/18 03:59:07;;;;;;;16.55;9.07;;;;;;;4.99;83.71;97380.25;5089880;28;20054;-75
2021/11/18 04:01:35;;;;;;;16.38;9.13;;;;;;;4.97;83.55;97375.09;5090090;28;20410;-74
2021/11/18 04:04:03;;;;;;;16.50;8.73;;;;;;;4.93;83.68;97373.97;5089813;28;20052;-72
2021/11/18 04:06:29;;;;;;;14.75;8.38;;;;;;;4.89;84.03;97372.84;5090019;28;20051;-74
2021/11/18 04:08:56;;;;;;;17.48;9.43;;;;;;;4.82;84.58;97371.47;5090838;28;20055;-74
2021/11/18 04:11:22;;;;;;;17.73;9.60;;;;;;;4.79;84.50;97372.75;5089429;28;20052;-74
2021/11/18 04:13:49;;;;;;;15.30;8.57;;;;;;;4.78;84.70;97368.44;5090627;28;20048;-74
2021/11/18 04:16:15;;;;;;;13.93;8.63;;;;;;;4.78;85.00;97370.34;5089667;28;20058;-74
2021/11/18 04:18:43;;;;;;;17.98;9.60;;;;;;;4.76;85.19;97373.28;5090349;28;20044;-74
2021/11/18 04:21:10;;;;;;;16.95;9.20;;;;;;;4.79;85.36;97371.97;5089252;28;20400;-74
2021/11/18 04:23:36;;;;;;;18.50;10.18;;;;;;;4.78;85.15;97365.75;5089841;28;20122;-74
2021/11/18 04:26:04;;;;;;;15.32;9.32;;;;;;;4.81;85.42;97373.34;5089864;28;20452;-73
2021/11/18 04:28:31;;;;;;;18.02;9.73;;;;;;;4.83;85.37;97373.88;5089394;28;20052;-74
2021/11/18 04:31:02;;;;;;;16.45;9.73;;;;;;;4.86;85.39;97384.19;5090405;28;20059;-74
2021/11/18 04:33:30;;;;;;;16.17;8.82;;;;;;;4.88;84.86;97381.22;5068952;28;20589;-74
2021/11/18 04:36:00;;;;;;;15.55;9.35;;;;;;;4.84;84.67;97369.31;5070403;28;20422;-74
2021/11/18 04:38:26;;;;;;;14.52;8.68;;;;;;;4.80;84.48;97379.78;5068317;28;20044;-74
2021/11/18 04:40:53;;;;;;;17.90;8.30;;;;;;;4.78;84.74;97386.53;5069392;28;20048;-74
2021/11/18 04:43:20;;;;;;;16.27;9.48;;;;;;;4.75;84.76;97398.66;5068214;28;20048;-74
2021/11/18 04:45:46;;;;;;;17.92;9.25;;;;;;;4.77;85.35;97401.09;5069240;28;20463;-74
2021/11/18 04:48:13;;;;;;;14.55;8.65;;;;;;;4.82;85.42;97393.84;5069204;28;20057;-74
2021/11/18 04:50:40;;;;;;;14.13;8.85;;;;;;;4.88;84.98;97394.72;5068924;28;20044;-74
2021/11/18 04:53:09;;;;;;;15.52;9.52;;;;;;;4.92;84.47;97399.34;5069504;28;20055;-73
2021/11/18 04:55:37;;;;;;;15.65;9.25;;;;;;;4.97;84.78;97407.50;5068867;28;20048;-73
2021/11/18 04:58:05;;;;;;;15.90;9.27;;;;;;;4.96;84.04;97405.06;5069412;28;20056;-73
2021/11/18 05:00:35;;;;;;;15.93;8.93;;;;;;;4.93;84.17;97421.75;5068309;28;20068;-74
2021/11/18 05:03:01;;;;;;;15.55;9.07;;;;;;;4.93;84.60;97425.25;5068899;28;20052;-74
2021/11/18 05:05:29;;;;;;;17.83;9.82;;;;;;;4.95;84.77;97417.72;5076494;28;20385;-74
2021/11/18 05:07:55;;;;;;;16.50;10.15;;;;;;;5.01;84.46;97417.75;5069099;28;20837;-74
2021/11/18 05:10:24;;;;;;;14.45;9.13;;;;;;;5.01;84.15;97412.38;5068467;28;20052;-74
2021/11/18 05:12:51;;;;;;;15.75;8.73;;;;;;;5.02;84.19;97417.53;5068495;28;20038;-74
2021/11/18 05:15:21;;;;;;;19.10;9.63;;;;;;;5.04;84.37;97415.38;5068922;28;20504;-74
2021/11/18 05:17:48;;;;;;;16.17;9.63;;;;;;;5.10;84.14;97427.03;5068334;28;20044;-74
2021/11/18 05:20:16;;;;;;;16.60;9.73;;;;;;;5.12;84.04;97424.91;5068752;28;20048;-74
2021/11/18 05:22:43;;;;;;;16.30;9.35;;;;;;;5.16;83.39;97420.59;5068156;28;20123;-74
2021/11/18 05:25:10;;;;;;;16.52;9.70;;;;;;;5.16;83.43;97426.00;5068682;28;20055;-73
2021/11/18 05:27:38;;;;;;;18.33;9.63;;;;;;;5.20;83.09;97427.13;5068598;28;20052;-74
2021/11/18 05:30:05;;;;;;;14.48;9.25;;;;;;;5.19;82.89;97433.59;5067671;28;20127;-74
2021/11/18 05:32:32;;;;;;;18.48;9.85;;;;;;;5.21;83.10;97439.53;5068054;28;20623;-73
2021/11/18 05:34:59;;;;;;;15.57;9.48;;;;;;;5.21;83.36;97439.53;5068583;28;20059;-74
2021/11/18 05:37:26;;;;;;;15.55;9.40;;;;;;;5.20;83.43;97433.34;5068532;28;20534;-74
2021/11/18 05:39:52;;;;;;;16.15;9.77;;;;;;;5.18;83.54;97429.28;5068060;28;20044;-74
2021/11/18 05:42:20;;;;;;;17.10;10.13;;;;;;;5.16;83.75;97426.81;5068302;28;20059;-75
2021/11/18 05:44:49;;;;;;;16.40;9.95;;;;;;;5.13;83.86;97423.84;5067584;28;20044;-73
2021/11/18 05:47:16;;;;;;;16.40;9.82;;;;;;;5.11;84.29;97428.66;5068104;28;20060;-74
2021/11/18 05:49:42;;;;;;;16.20;9.27;;;;;;;5.08;84.38;97439.97;5067864;28;20048;-74
2021/11/18 05:52:09;;;;;;;14.45;9.45;;;;;;;5.05;84.13;97441.28;5067403;28;20049;-74
2021/11/18 05:54:36;;;;;;;15.45;9.35;;;;;;;5.06;84.04;97444.81;5067129;28;20505;-74
2021/11/18 05:57:03;;;;;;;16.10;9.50;;;;;;;5.07;84.38;97449.97;5067684;28;20762;-72
2021/11/18 05:59:29;;;;;;;16.33;10.32;;;;;;;5.07;84.29;97449.16;5067772;28;20503;-73
2021/11/18 06:01:59;;;;;;;17.42;10.35;;;;;;;5.05;84.47;97448.59;5066994;28;20051;-72
2021/11/18 06:04:25;;;;;;;17.40;10.30;;;;;;;5.02;84.61;97451.81;5068054;28;20139;-71
2021/11/18 06:06:52;;;;;;;18.65;10.57;;;;;;;5.01;84.95;97460.94;5067343;28;20044;-71
2021/11/18 06:09:21;;;;;;;17.98;10.75;;;;;;;5.05;84.93;97472.88;5065998;28;20052;-72
2021/11/18 06:11:47;;;;;;;16.20;9.82;;;;;;;5.05;84.47;97467.47;5065415;28;20055;-72
2021/11/18 06:14:15;;;;;;;20.52;11.70;;;;;;;5.04;84.72;97458.56;5067137;28;20220;-72
2021/11/18 06:16:42;;;;;;;18.55;10.30;;;;;;;5.01;84.52;97463.66;5066963;28;20040;-72
2021/11/18 06:19:09;;;;;;;17.58;10.43;;;;;;;4.96;84.44;97454.47;5066077;28;20044;-72
2021/11/18 06:21:39;;;;;;;20.50;11.02;;;;;;;4.91;84.91;97467.09;5067065;28;20055;-72
2021/11/18 06:24:06;;;;;;;19.40;10.48;;;;;;;4.93;84.89;97479.25;5066107;28;20048;-72
2021/11/18 06:26:33;;;;;;;18.20;10.40;;;;;;;4.91;84.97;97478.69;5067785;28;20333;-72
2021/11/18 06:28:59;;;;;;;17.65;10.63;;;;;;;4.92;85.29;97491.13;5066332;28;20052;-72
2021/11/18 06:31:27;;;;;;;19.63;10.73;;;;;;;4.94;85.38;97494.38;5066783;28;20063;-72
2021/11/18 06:33:54;;;;;;;17.20;10.73;;;;;;;4.98;85.37;97490.09;5067364;28;20048;-72
2021/11/18 06:36:22;;;;;;;18.33;10.38;;;;;;;5.00;84.59;97480.94;5067428;28;20075;-72
2021/11/18 06:38:50;;;;;;;20.33;10.98;;;;;;;4.94;84.72;97488.97;5067088;28;20500;-72
2021/11/18 06:41:20;;;;;;;18.15;11.02;;;;;;;4.89;84.85;97494.31;5066485;28;20040;-72
2021/11/18 06:43:47;;;;;;;18.92;10.98;;;;;;;4.88;85.27;97499.97;5067437;28;20044;-72
2021/11/18 06:46:14;;;;;;;20.20;10.98;;;;;;;4.91;85.26;97510.28;5066344;28;20468;-72
2021/11/18 06:48:41;;;;;;;18.17;10.88;;;;;;;4.92;85.17;97504.63;5068138;28;20056;-72
2021/11/18 06:51:12;;;;;;;17.27;10.18;;;;;;;4.95;85.10;97511.38;5065442;28;20052;-72
2021/11/18 06:53:42;;;;;;;19.08;11.20;;;;;;;4.97;85.07;97512.78;5067935;28;20095;-72
2021/11/18 06:56:10;;;;;;;21.80;11.25;;;;;;;5.01;85.37;97509.53;5066347;28;20415;-72
2021/11/18 06:58:37;;;;;;;18.85;10.88;;;;;;;5.05;85.06;97516.06;5067311;28;20055;-72
2021/11/18 07:01:04;;;;;;;17.95;10.52;;;;;;;5.12;84.89;97511.31;5066666;28;20049;-72
2021/11/18 07:03:31;;;;;;;17.88;10.98;;;;;;;5.15;84.73;97508.06;5067010;28;20055;-72
2021/11/18 07:05:57;;;;;;;18.55;10.85;;;;;;;5.16;84.44;97513.22;5068738;28;20052;-72
2021/11/18 07:08:24;;;;;;;17.05;10.95;;;;;;;5.18;84.33;97515.69;5073309;28;20048;-72
2021/11/18 07:10:52;;;;;;;17.33;10.27;;;;;;;5.22;84.50;97516.81;5074222;28;20056;-72
2021/11/18 07:13:22;;;;;;;18.77;10.18;;;;;;;5.26;83.99;97527.91;5072900;28;20048;-72
2021/11/18 07:15:48;;;;;;;16.77;10.15;;;;;;;5.25;83.60;97516.28;5074140;28;20040;-72
2021/11/18 07:18:15;;;;;;;17.80;10.57;;;;;;;5.23;83.38;97523.84;5072874;28;20052;-72
2021/11/18 07:20:43;;;;;;;17.63;10.50;;;;;;;5.21;84.11;97532.16;5073808;28;20048;-72
2021/11/18 07:23:12;;;;;;;20.23;11.10;;;;;;;5.22;83.68;97527.63;5072944;28;20052;-72
2021/11/18 07:25:39;;;;;;;17.98;10.57;;;;;;;5.32;83.82;97533.09;5073743;28;20052;-72
2021/11/18 07:28:07;;;;;;;17.45;10.75;;;;;;;5.34;83.33;97532.84;5073447;28;20059;-72
2021/11/18 07:30:34;;;;;;;17.00;10.75;;;;;;;5.32;83.10;97533.09;5072879;28;20048;-72
2021/11/18 07:33:01;;;;;;;17.92;10.05;;;;;;;5.35;83.49;97538.00;5073975;28;20053;-72
2021/11/18 07:35:28;;;;;;;16.88;10.50;;;;;;;5.39;83.33;97549.09;5073019;28;20040;-72
2021/11/18 07:37:55;;;;;;;17.05;10.68;;;;;;;5.44;83.42;97547.28;5074591;28;20056;-72
2021/11/18 07:40:22;;;;;;;16.33;10.55;;;;;;;5.50;83.01;97551.66;5072392;28;20555;-72
2021/11/18 07:42:50;;;;;;;16.13;10.07;;;;;;;5.52;82.69;97555.97;5073812;28;20040;-72
2021/11/18 07:45:21;;;;;;;16.90;10.73;;;;;;;5.49;82.90;97560.81;5072550;28;20056;-73
2021/11/18 07:47:47;;;;;;;18.08;11.10;;;;;;;5.55;82.80;97563.56;5073542;28;20131;-73
2021/11/18 07:50:15;;;;;;;17.85;10.57;;;;;;;5.59;82.79;97552.00;5073004;28;20045;-72
2021/11/18 07:52:42;;;;;;;18.05;11.13;;;;;;;5.61;82.35;97551.75;5073099;28;20044;-72
2021/11/18 07:55:11;;;;;;;19.75;10.75;;;;;;;5.57;82.49;97556.03;5073147;28;20045;-72
2021/11/18 07:57:38;;;;;;;18.60;11.30;;;;;;;5.49;82.61;97560.81;5072772;28;20532;-72
2021/11/18 08:00:06;;;;;;;19.42;10.32;;;;;;;5.46;82.92;97561.31;5073149;28;20492;-72
2021/11/18 08:02:34;;;;;;;16.50;10.27;;;;;;;5.46;82.26;97555.91;5072561;28;20048;-72
2021/11/18 08:05:01;;;;;;;17.70;10.90;;;;;;;5.47;82.32;97545.94;5073192;28;20055;-72
2021/11/18 08:07:28;;;;;;;16.83;11.13;;;;;;;5.45;82.79;97554.28;5072913;28;20059;-72
2021/11/18 08:09:55;;;;;;;19.15;10.52;;;;;;;5.47;83.15;97551.34;5072950;28;20056;-72
2021/11/18 08:12:22;;;;;;;17.20;10.02;;;;;;;5.49;82.99;97555.41;5072677;28;20401;-72
2021/11/18 08:14:48;;;;;;;17.60;10.68;;;;;;;5.48;82.62;97553.78;5072808;28;20049;-72
2021/11/18 08:17:15;;;;;;;16.70;10.15;;;;;;;5.55;83.04;97558.16;5072206;28;20059;-72
2021/11/18 08:19:42;;;;;;;16.98;10.10;;;;;;;5.56;82.84;97554.41;5068863;28;20113;-72
2021/11/18 08:22:09;;;;;;;20.38;10.20;;;;;;;5.58;82.72;97554.94;5070221;28;20419;-72
2021/11/18 08:24:36;;;;;;;16.52;10.27;;;;;;;5.64;83.12;97562.03;5069418;28;20051;-72
2021/11/18 08:27:03;;;;;;;15.93;9.60;;;;;;;5.70;82.83;97552.91;5069974;28;20519;-72
2021/11/18 08:29:31;;;;;;;20.40;10.55;;;;;;;5.75;82.47;97552.94;5069398;28;20105;-72
2021/11/18 08:31:58;;;;;;;16.42;10.35;;;;;;;5.83;82.21;97552.47;5069696;28;20411;-72
2021/11/18 08:34:25;;;;;;;17.05;9.88;;;;;;;5.90;81.93;97555.78;5069611;28;20052;-73
2021/11/18 08:36:53;;;;;;;16.40;10.25;;;;;;;5.99;81.59;97556.94;5070623;28;20464;-72
2021/11/18 08:39:22;;;;;;;14.55;9.45;;;;;;;6.04;80.93;97558.06;5069755;28;20047;-72
2021/11/18 08:41:51;;;;;;;17.73;10.25;;;;;;;6.06;80.83;97564.03;5085069;28;20044;-72
2021/11/18 08:44:18;;;;;;;16.77;10.43;;;;;;;6.05;81.40;97562.38;5089967;28;20055;-72
2021/11/18 08:46:46;;;;;;;17.45;10.13;;;;;;;6.10;81.04;97565.13;5089155;28;20051;-72
2021/11/18 08:49:13;;;;;;;15.77;9.75;;;;;;;6.08;80.03;97568.09;5089915;28;20537;-72
2021/11/18 08:51:40;;;;;;;16.95;10.27;;;;;;;6.07;79.85;97568.38;5089163;28;20059;-72
2021/11/18 08:54:12;;;;;;;18.13;10.18;;;;;;;6.11;80.12;97572.16;5089695;28;20048;-72
2021/11/18 08:56:38;;;;;;;15.30;9.25;;;;;;;6.16;79.96;97575.75;5089283;28;20052;-72
2021/11/18 08:59:06;;;;;;;15.55;9.43;;;;;;;6.19;79.79;97579.81;5088950;28;20056;-73
2021/11/18 09:01:40;;;;;;;15.48;9.80;;;;;;;6.16;78.87;97577.59;5089261;28;20077;-72
2021/11/18 09:04:09;;;;;;;17.00;9.80;;;;;;;6.15;79.53;97581.41;5088805;28;20435;-72
2021/11/18 09:06:35;;;;;;;16.70;9.57;;;;;;;6.19;79.67;97585.22;5089981;28;20048;-73
2021/11/18 09:09:03;;;;;;;15.05;9.38;;;;;;;6.26;79.60;97591.22;5088670;28;20059;-71
2021/11/18 09:11:32;;;;;;;16.20;9.95;;;;;;;6.27;78.85;97585.56;5072197;28;20064;-72
2021/11/18 09:14:00;;;;;;;14.23;9.20;;;;;;;6.34;79.11;97593.44;5068799;28;20056;-72
2021/11/18 09:16:29;;;;;;;16.08;9.48;;;;;;;6.39;79.45;97593.47;5069056;28;20474;-73
2021/11/18 09:18:56;;;;;;;15.15;9.35;;;;;;;6.61;79.51;97592.53;5069070;28;20087;-73
2021/11/18 09:21:25;;;;;;;16.17;9.70;;;;;;;6.74;78.58;97592.06;5068285;28;20059;-72
2021/11/18 09:23:57;;;;;;;15.77;10.10;;;;;;;6.80;77.26;97596.44;5069226;28;20454;-72
2021/11/18 09:26:28;;;;;;;16.08;9.52;;;;;;;6.86;77.88;97592.66;5068009;28;20044;-72
2021/11/18 09:28:57;;;;;;;14.82;8.82;;;;;;;6.92;76.59;97599.72;5069269;28;20060;-72
2021/11/18 09:31:24;;;;;;;16.13;9.60;;;;;;;6.92;77.07;97599.72;5067106;28;20040;-72
2021/11/18 09:33:52;;;;;;;16.58;9.68;;;;;;;6.96;77.66;97611.66;5069159;28;20789;-72
2021/11/18 09:36:20;;;;;;;19.52;10.15;;;;;;;7.05;77.85;97615.50;5067894;28;20051;-72
2021/11/18 09:38:49;;;;;;;16.65;10.10;;;;;;;7.12;77.59;97606.31;5068787;28;20054;-73
2021/11/18 09:41:36;;;;;;;17.13;10.48;;;;;;;7.12;78.33;97609.03;5067916;28;20155;-72
2021/11/18 09:44:39;;;;;;;15.27;9.73;;;;;;;7.13;78.45;97621.47;5067906;28;20147;-72
2021/11/18 09:47:25;;;;;;;17.02;9.82;;;;;;;7.25;77.41;97619.34;5068782;28;20076;-72
2021/11/18 09:50:02;;;;;;;18.40;9.68;;;;;;;7.33;77.34;97621.56;5068621;28;20127;-72
2021/11/18 09:52:40;;;;;;;18.52;9.65;;;;;;;7.36;76.55;97621.03;5068137;28;20500;-73
2021/11/18 09:55:09;;;;;;;13.82;8.95;;;;;;;7.27;76.55;97619.91;5068096;28;20071;-72
2021/11/18 09:57:49;;;;;;;17.25;9.45;;;;;;;7.25;76.48;97619.34;5067919;28;20052;-72
2021/11/18 10:00:39;;;;;;;14.35;8.85;;;;;;;7.17;76.77;97611.75;5068242;28;20056;-72
2021/11/18 10:03:21;;;;;;;14.55;8.80;;;;;;;7.11;76.61;97612.81;5067605;28;20048;-72
2021/11/18 10:06:01;;;;;;;14.93;8.55;;;;;;;7.04;77.60;97611.13;5067900;28;20629;-72
2021/11/18 10:08:32;;;;;;;12.20;7.50;;;;;;;7.01;77.82;97608.16;5068111;28;20040;-72
2021/11/18 10:11:08;;;;;;;12.90;7.65;;;;;;;7.04;78.24;97618.44;5067331;28;20044;-72
2021/11/18 10:13:43;;;;;;;12.30;7.80;;;;;;;7.10;78.48;97619.28;5088753;28;20044;-72
2021/11/18 10:16:15;;;;;;;15.80;7.72;;;;;;;7.19;77.05;97615.00;5087391;28;20051;-71
2021/11/18 10:18:44;;;;;;;13.50;7.35;;;;;;;7.18;76.83;97613.38;5088164;28;20051;-72
2021/11/18 10:21:16;;;;;;;13.18;7.22;;;;;;;7.22;76.81;97609.06;5087356;28;20044;-72
2021/11/18 10:23:44;;;;;;;11.13;6.90;;;;;;;7.25;76.25;97611.22;5087570;28;20401;-72
2021/11/18 10:26:13;;;;;;;12.10;7.35;;;;;;;7.30;76.30;97611.25;5087619;28;20048;-72
2021/11/18 10:28:45;;;;;;;11.98;6.78;;;;;;;7.37;75.36;97606.41;5087275;28;20779;-72
2021/11/18 10:31:18;;;;;;;10.07;6.45;;;;;;;7.45;75.19;97603.16;5088019;28;20064;-72
2021/11/18 10:33:51;;;;;;;12.93;7.32;;;;;;;7.37;75.42;97606.41;5087225;28;20040;-72
2021/11/18 10:36:37;;;;;;;14.68;8.07;;;;;;;7.37;75.61;97605.59;5087701;28;20052;-72
2021/11/18 10:39:11;;;;;;;12.48;7.63;;;;;;;7.33;75.13;97610.72;5086960;28;20500;-71
2021/11/18 10:41:38;;;;;;;12.23;7.20;;;;;;;7.31;76.03;97610.19;5087093;28;20047;-72
2021/11/18 10:44:14;;;;;;;14.85;7.72;;;;;;;7.33;75.91;97611.53;5087605;28;20040;-72
2021/11/18 10:46:47;;;;;;;14.77;8.23;;;;;;;7.45;76.34;97613.19;5087212;28;20406;-72
2021/11/18 10:49:17;;;;;;;13.55;8.20;;;;;;;7.58;75.65;97610.78;5087918;28;20090;-72
2021/11/18 10:51:50;;;;;;;12.27;7.55;;;;;;;7.68;75.15;97606.47;5087483;28;20036;-72
2021/11/18 10:54:19;;;;;;;14.88;7.60;;;;;;;7.76;75.59;97609.47;5087479;28;20421;-72
2021/11/18 10:56:50;;;;;;;12.63;8.48;;;;;;;7.79;73.92;97600.81;5087530;28;20043;-72
2021/11/18 10:59:20;;;;;;;11.63;7.35;;;;;;;7.75;73.86;97602.41;5087148;28;20052;-72
2021/11/18 11:01:50;;;;;;;13.13;7.93;;;;;;;7.65;74.54;97596.16;5087745;28;20052;-72
2021/11/18 11:04:33;;;;;;;14.52;8.20;;;;;;;7.58;75.13;97593.72;5086612;28;20045;-72
2021/11/18 11:07:00;;;;;;;16.08;8.07;;;;;;;7.62;75.72;97596.69;5088250;28;20824;-72
2021/11/18 11:09:32;;;;;;;13.52;7.95;;;;;;;7.68;74.59;97584.78;5066744;28;20503;-72
2021/11/18 11:12:11;;;;;;;15.77;8.75;;;;;;;7.76;75.10;97586.97;5067284;28;20658;-72
2021/11/18 11:15:18;;;;;;;16.50;8.27;;;;;;;7.90;75.16;97577.22;5067169;28;20617;-72
2021/11/18 11:18:02;;;;;;;10.05;6.28;;;;;;;7.93;73.05;97575.84;5066513;28;20075;-72
2021/11/18 11:20:39;;;;;;;12.20;7.00;;;;;;;7.91;73.86;97567.19;5067694;28;20036;-72
2021/11/18 11:23:12;;;;;;;10.07;6.53;;;;;;;7.78;72.46;97574.78;5066453;28;20045;-71
2021/11/18 11:26:05;;;;;;;8.18;5.10;;;;;;;7.68;72.80;97571.25;5066758;28;20052;-72
2021/11/18 11:28:48;;;;;;;12.00;7.20;;;;;;;7.68;74.22;97568.53;5067637;28;20037;-72
2021/11/18 11:31:29;;;;;;;11.75;7.40;;;;;;;7.69;74.72;97572.84;5065862;28;20049;-72
2021/11/18 11:34:05;;;;;;;9.40;6.32;;;;;;;7.76;75.09;97570.69;5067630;28;20052;-72
2021/11/18 11:36:35;;;;;;;11.05;5.82;;;;;;;7.77;72.66;97564.19;5066734;28;20049;-72
2021/11/18 11:39:16;;;;;;;10.90;6.18;;;;;;;7.83;73.28;97560.41;5066853;28;20135;-70
2021/11/18 11:42:25;;;;;;;10.65;5.72;;;;;;;7.88;72.49;97568.50;5066724;28;20096;-72